sensor_id;sensor_type;location;lat;lon;timestamp;pressure;altitude;pressure_sealevel;temperature;humidity
75013;BME280;63567;49.956;20.130;2023-04-15T00:02:00;95866.59;;;9.11;64.85
75013;BME280;63567;49.956;20.130;2023-04-15T00:04:26;95862.75;;;9.07;65.06
75013;BME280;63567;49.956;20.130;2023-04-15T00:06:52;95860.94;;;9.08;65.04
75013;BME280;63567;49.956;20.130;2023-04-15T00:09:18;95860.53;;;9.04;65.58
75013;BME280;63567;49.956;20.130;2023-04-15T00:11:44;95872.88;;;9.03;65.37
75013;BME280;63567;49.956;20.130;2023-04-15T00:14:12;95876.91;;;8.99;65.56
75013;BME280;63567;49.956;20.130;2023-04-15T00:16:38;95884.00;;;8.99;65.26
75013;BME280;63567;49.956;20.130;2023-04-15T00:19:03;95889.25;;;8.99;65.41
75013;BME280;63567;49.956;20.130;2023-04-15T00:21:29;95892.91;;;8.98;65.24
75013;BME280;63567;49.956;20.130;2023-04-15T00:23:54;95881.78;;;8.96;65.12
75013;BME280;63567;49.956;20.130;2023-04-15T00:26:20;95870.47;;;8.95;65.24
75013;BME280;63567;49.956;20.130;2023-04-15T00:28:45;95877.16;;;8.98;65.27
75013;BME280;63567;49.956;20.130;2023-04-15T00:31:11;95866.84;;;8.96;65.16
75013;BME280;63567;49.956;20.130;2023-04-15T00:33:36;95853.72;;;8.90;65.43
75013;BME280;63567;49.956;20.130;2023-04-15T00:36:02;95854.13;;;8.87;65.49
75013;BME280;63567;49.956;20.130;2023-04-15T00:38:28;95844.66;;;8.86;65.48
75013;BME280;63567;49.956;20.130;2023-04-15T00:40:54;95847.06;;;8.87;65.68
75013;BME280;63567;49.956;20.130;2023-04-15T00:43:20;95844.66;;;8.86;65.00
75013;BME280;63567;49.956;20.130;2023-04-15T00:45:46;95844.25;;;8.82;65.07
75013;BME280;63567;49.956;20.130;2023-04-15T00:48:11;95843.84;;;8.85;65.52
75013;BME280;63567;49.956;20.130;2023-04-15T00:50:37;95851.94;;;8.77;66.65
75013;BME280;63567;49.956;20.130;2023-04-15T00:53:02;95859.03;;;8.76;66.55
75013;BME280;63567;49.956;20.130;2023-04-15T00:55:27;95863.25;;;8.71;66.14
75013;BME280;63567;49.956;20.130;2023-04-15T00:57:53;95866.50;;;8.73;65.78
75013;BME280;63567;49.956;20.130;2023-04-15T01:00:19;95867.28;;;8.73;66.08
75013;BME280;63567;49.956;20.130;2023-04-15T01:02:45;95859.59;;;8.72;66.45
75013;BME280;63567;49.956;20.130;2023-04-15T01:05:10;95862.66;;;8.75;65.97
75013;BME280;63567;49.956;20.130;2023-04-15T01:07:36;95860.84;;;8.69;66.67
75013;BME280;63567;49.956;20.130;2023-04-15T01:10:04;95866.09;;;8.69;66.06
75013;BME280;63567;49.956;20.130;2023-04-15T01:12:31;95885.50;;;8.61;66.51
75013;BME280;63567;49.956;20.130;2023-04-15T01:14:58;95882.06;;;8.61;67.35
75013;BME280;63567;49.956;20.130;2023-04-15T01:17:24;95883.88;;;8.60;66.79
75013;BME280;63567;49.956;20.130;2023-04-15T01:19:50;95889.56;;;8.51;67.23
75013;BME280;63567;49.956;20.130;2023-04-15T01:22:16;95890.94;;;8.53;66.88
75013;BME280;63567;49.956;20.130;2023-04-15T01:25:05;95893.38;;;8.55;66.32
75013;BME280;63567;49.956;20.130;2023-04-15T01:27:33;95889.34;;;8.52;66.67
75013;BME280;63567;49.956;20.130;2023-04-15T01:29:59;95881.84;;;8.56;66.10
75013;BME280;63567;49.956;20.130;2023-04-15T01:32:25;95866.31;;;8.48;66.67
75013;BME280;63567;49.956;20.130;2023-04-15T01:34:51;95870.94;;;8.39;67.10
75013;BME280;63567;49.956;20.130;2023-04-15T01:37:16;95879.25;;;8.42;66.59
75013;BME280;63567;49.956;20.130;2023-04-15T01:39:42;95875.03;;;8.48;66.40
75013;BME280;63567;49.956;20.130;2023-04-15T01:42:07;95879.84;;;8.51;66.28
75013;BME280;63567;49.956;20.130;2023-04-15T01:44:32;95883.09;;;8.47;66.38
75013;BME280;63567;49.956;20.130;2023-04-15T01:46:58;95876.81;;;8.48;65.86
75013;BME280;63567;49.956;20.130;2023-04-15T01:49:23;95882.91;;;8.41;65.84
75013;BME280;63567;49.956;20.130;2023-04-15T01:51:49;95893.19;;;8.43;66.43
75013;BME280;63567;49.956;20.130;2023-04-15T01:54:14;95888.69;;;8.37;66.33
75013;BME280;63567;49.956;20.130;2023-04-15T01:56:39;95891.13;;;8.38;66.34
75013;BME280;63567;49.956;20.130;2023-04-15T01:59:05;95887.72;;;8.38;66.04
75013;BME280;63567;49.956;20.130;2023-04-15T02:01:30;95891.78;;;8.40;66.24
75013;BME280;63567;49.956;20.130;2023-04-15T02:03:56;95894.97;;;8.36;65.55
75013;BME280;63567;49.956;20.130;2023-04-15T02:06:21;95900.41;;;8.34;65.38
75013;BME280;63567;49.956;20.130;2023-04-15T02:08:46;95893.94;;;8.30;65.45
75013;BME280;63567;49.956;20.130;2023-04-15T02:11:12;95904.25;;;8.25;65.56
75013;BME280;63567;49.956;20.130;2023-04-15T02:13:37;95906.69;;;8.27;65.65
75013;BME280;63567;49.956;20.130;2023-04-15T02:16:03;95906.06;;;8.25;65.74
75013;BME280;63567;49.956;20.130;2023-04-15T02:18:28;95902.66;;;8.24;65.74
75013;BME280;63567;49.956;20.130;2023-04-15T02:20:54;95918.34;;;8.17;66.05
75013;BME280;63567;49.956;20.130;2023-04-15T02:23:21;95910.50;;;8.11;66.50
75013;BME280;63567;49.956;20.130;2023-04-15T02:25:46;95908.28;;;8.01;66.34
75013;BME280;63567;49.956;20.130;2023-04-15T02:28:12;95909.50;;;8.05;66.95
75013;BME280;63567;49.956;20.130;2023-04-15T02:30:37;95915.13;;;7.95;67.00
75013;BME280;63567;49.956;20.130;2023-04-15T02:33:04;95911.50;;;8.03;66.32
75013;BME280;63567;49.956;20.130;2023-04-15T02:35:31;95917.34;;;8.05;66.47
75013;BME280;63567;49.956;20.130;2023-04-15T02:37:56;95910.47;;;7.97;66.18
75013;BME280;63567;49.956;20.130;2023-04-15T02:40:22;95902.41;;;7.92;66.10
75013;BME280;63567;49.956;20.130;2023-04-15T02:42:47;95899.38;;;7.95;66.18
75013;BME280;63567;49.956;20.130;2023-04-15T02:45:13;95905.22;;;7.84;66.43
75013;BME280;63567;49.956;20.130;2023-04-15T02:47:38;95896.56;;;7.84;66.46
75013;BME280;63567;49.956;20.130;2023-04-15T02:50:10;95906.25;;;7.83;66.17
75013;BME280;63567;49.956;20.130;2023-04-15T02:52:41;95921.13;;;7.76;66.29
75013;BME280;63567;49.956;20.130;2023-04-15T02:55:07;95917.50;;;7.77;66.01
75013;BME280;63567;49.956;20.130;2023-04-15T02:57:33;95918.91;;;7.79;66.35
75013;BME280;63567;49.956;20.130;2023-04-15T03:00:02;95923.38;;;7.79;66.60
75013;BME280;63567;49.956;20.130;2023-04-15T03:02:33;95910.84;;;7.68;66.93
75013;BME280;63567;49.956;20.130;2023-04-15T03:04:59;95916.88;;;7.61;66.49
75013;BME280;63567;49.956;20.130;2023-04-15T03:07:24;95915.84;;;7.63;66.91
75013;BME280;63567;49.956;20.130;2023-04-15T03:09:50;95919.88;;;7.58;66.69
75013;BME280;63567;49.956;20.130;2023-04-15T03:12:15;95925.72;;;7.60;67.08
75013;BME280;63567;49.956;20.130;2023-04-15T03:14:41;95922.28;;;7.53;67.04
75013;BME280;63567;49.956;20.130;2023-04-15T03:17:06;95927.09;;;7.50;67.54
75013;BME280;63567;49.956;20.130;2023-04-15T03:19:32;95931.94;;;7.46;67.40
75013;BME280;63567;49.956;20.130;2023-04-15T03:21:57;95926.47;;;7.41;67.02
75013;BME280;63567;49.956;20.130;2023-04-15T03:24:22;95932.91;;;7.45;67.79
75013;BME280;63567;49.956;20.130;2023-04-15T03:26:48;95919.81;;;7.45;67.37
75013;BME280;63567;49.956;20.130;2023-04-15T03:29:14;95917.38;;;7.37;68.18
75013;BME280;63567;49.956;20.130;2023-04-15T03:31:39;95923.44;;;7.37;67.52
75013;BME280;63567;49.956;20.130;2023-04-15T03:34:04;95917.00;;;7.40;67.33
75013;BME280;63567;49.956;20.130;2023-04-15T03:36:31;95919.19;;;7.36;67.13
75013;BME280;63567;49.956;20.130;2023-04-15T03:38:57;95922.59;;;7.37;67.53
75013;BME280;63567;49.956;20.130;2023-04-15T03:41:23;95936.50;;;7.31;67.74
75013;BME280;63567;49.956;20.130;2023-04-15T03:43:48;95929.44;;;7.25;67.93
75013;BME280;63567;49.956;20.130;2023-04-15T03:46:16;95922.53;;;7.17;68.40
75013;BME280;63567;49.956;20.130;2023-04-15T03:48:42;95936.84;;;7.21;68.60
75013;BME280;63567;49.956;20.130;2023-04-15T03:51:07;95942.09;;;7.21;68.08
75013;BME280;63567;49.956;20.130;2023-04-15T03:53:32;95950.53;;;7.16;68.64
75013;BME280;63567;49.956;20.130;2023-04-15T03:55:58;95949.53;;;7.17;68.71
75013;BME280;63567;49.956;20.130;2023-04-15T03:58:23;95957.38;;;7.17;68.30
75013;BME280;63567;49.956;20.130;2023-04-15T04:00:48;95965.63;;;7.14;68.89
75013;BME280;63567;49.956;20.130;2023-04-15T04:03:14;95963.63;;;7.16;68.92
75013;BME280;63567;49.956;20.130;2023-04-15T04:05:39;95964.63;;;7.15;69.24
75013;BME280;63567;49.956;20.130;2023-04-15T04:08:05;95970.50;;;7.24;69.18
75013;BME280;63567;49.956;20.130;2023-04-15T04:10:31;95968.13;;;7.29;68.47
75013;BME280;63567;49.956;20.130;2023-04-15T04:12:56;95974.38;;;7.35;68.41
75013;BME280;63567;49.956;20.130;2023-04-15T04:15:22;95971.78;;;7.35;68.71
75013;BME280;63567;49.956;20.130;2023-04-15T04:17:47;95974.19;;;7.36;68.42
75013;BME280;63567;49.956;20.130;2023-04-15T04:20:13;95973.84;;;7.39;67.89
75013;BME280;63567;49.956;20.130;2023-04-15T04:22:39;95970.19;;;7.40;68.11
75013;BME280;63567;49.956;20.130;2023-04-15T04:25:06;95977.25;;;7.40;68.39
75013;BME280;63567;49.956;20.130;2023-04-15T04:27:33;95977.47;;;7.45;68.48
75013;BME280;63567;49.956;20.130;2023-04-15T04:29:58;95981.72;;;7.46;68.20
75013;BME280;63567;49.956;20.130;2023-04-15T04:32:23;95973.66;;;7.48;68.73
75013;BME280;63567;49.956;20.130;2023-04-15T04:34:49;95972.41;;;7.44;68.67
75013;BME280;63567;49.956;20.130;2023-04-15T04:37:14;95971.25;;;7.46;69.03
75013;BME280;63567;49.956;20.130;2023-04-15T04:39:40;95968.41;;;7.48;69.00
75013;BME280;63567;49.956;20.130;2023-04-15T04:42:05;95976.88;;;7.50;69.46
75013;BME280;63567;49.956;20.130;2023-04-15T04:44:31;95977.69;;;7.50;69.93
75013;BME280;63567;49.956;20.130;2023-04-15T04:46:56;95984.16;;;7.54;69.83
75013;BME280;63567;49.956;20.130;2023-04-15T04:49:21;95979.91;;;7.47;70.86
75013;BME280;63567;49.956;20.130;2023-04-15T04:51:47;95980.28;;;7.44;71.11
75013;BME280;63567;49.956;20.130;2023-04-15T04:54:13;95979.47;;;7.43;71.45
75013;BME280;63567;49.956;20.130;2023-04-15T04:56:38;95985.75;;;7.49;71.79
75013;BME280;63567;49.956;20.130;2023-04-15T04:59:04;95990.84;;;7.57;71.82
75013;BME280;63567;49.956;20.130;2023-04-15T05:01:29;95996.09;;;7.57;71.53
75013;BME280;63567;49.956;20.130;2023-04-15T05:03:55;95993.41;;;7.50;72.06
75013;BME280;63567;49.956;20.130;2023-04-15T05:06:20;96000.13;;;7.59;71.91
75013;BME280;63567;49.956;20.130;2023-04-15T05:08:46;96001.53;;;7.62;71.21
75013;BME280;63567;49.956;20.130;2023-04-15T05:11:18;96004.56;;;8.20;68.90
75013;BME280;63567;49.956;20.130;2023-04-15T05:13:43;96009.34;;;8.03;69.90
75013;BME280;63567;49.956;20.130;2023-04-15T05:16:08;96018.84;;;8.05;69.84
75013;BME280;63567;49.956;20.130;2023-04-15T05:18:34;96016.41;;;8.03;70.05
75013;BME280;63567;49.956;20.130;2023-04-15T05:20:59;96012.38;;;8.07;70.25
75013;BME280;63567;49.956;20.130;2023-04-15T05:23:25;96021.13;;;8.34;69.73
75013;BME280;63567;49.956;20.130;2023-04-15T05:25:50;96015.13;;;8.47;69.33
75013;BME280;63567;49.956;20.130;2023-04-15T05:28:16;96012.31;;;8.69;68.93
75013;BME280;63567;49.956;20.130;2023-04-15T05:30:41;96011.50;;;8.95;67.97
75013;BME280;63567;49.956;20.130;2023-04-15T05:33:07;96012.25;;;9.35;66.08
75013;BME280;63567;49.956;20.130;2023-04-15T05:35:33;96008.34;;;9.51;64.34
75013;BME280;63567;49.956;20.130;2023-04-15T05:37:58;96004.16;;;9.43;64.26
75013;BME280;63567;49.956;20.130;2023-04-15T05:40:23;96013.63;;;9.51;63.56
75013;BME280;63567;49.956;20.130;2023-04-15T05:42:49;96016.03;;;9.59;63.93
75013;BME280;63567;49.956;20.130;2023-04-15T05:45:14;96011.31;;;9.75;64.21
75013;BME280;63567;49.956;20.130;2023-04-15T05:47:39;96014.66;;;9.95;62.08
75013;BME280;63567;49.956;20.130;2023-04-15T05:50:05;96021.53;;;10.03;61.85
75013;BME280;63567;49.956;20.130;2023-04-15T05:52:31;96023.84;;;10.24;60.69
75013;BME280;63567;49.956;20.130;2023-04-15T05:54:56;96025.59;;;10.44;59.64
75013;BME280;63567;49.956;20.130;2023-04-15T05:57:22;96022.16;;;10.68;57.57
75013;BME280;63567;49.956;20.130;2023-04-15T05:59:47;96025.09;;;10.85;55.91
75013;BME280;63567;49.956;20.130;2023-04-15T06:02:13;96038.94;;;10.99;56.06
75013;BME280;63567;49.956;20.130;2023-04-15T06:04:39;96041.25;;;11.14;56.54
75013;BME280;63567;49.956;20.130;2023-04-15T06:07:04;96039.19;;;11.41;56.80
75013;BME280;63567;49.956;20.130;2023-04-15T06:09:30;96047.81;;;11.92;55.12
75013;BME280;63567;49.956;20.130;2023-04-15T06:11:55;96048.56;;;12.29;53.56
75013;BME280;63567;49.956;20.130;2023-04-15T06:14:22;96045.75;;;12.73;52.79
75013;BME280;63567;49.956;20.130;2023-04-15T06:16:47;96050.75;;;13.17;51.89
75013;BME280;63567;49.956;20.130;2023-04-15T06:19:13;96048.03;;;13.47;50.55
75013;BME280;63567;49.956;20.130;2023-04-15T06:21:38;96054.66;;;13.85;50.00
75013;BME280;63567;49.956;20.130;2023-04-15T06:24:04;96058.31;;;13.95;49.53
75013;BME280;63567;49.956;20.130;2023-04-15T06:26:29;96054.91;;;13.71;50.53
75013;BME280;63567;49.956;20.130;2023-04-15T06:28:55;96065.47;;;13.83;51.85
75013;BME280;63567;49.956;20.130;2023-04-15T06:31:21;96066.75;;;14.33;50.45
75013;BME280;63567;49.956;20.130;2023-04-15T06:33:46;96061.59;;;14.55;49.39
75013;BME280;63567;49.956;20.130;2023-04-15T06:36:11;96069.09;;;14.46;49.51
75013;BME280;63567;49.956;20.130;2023-04-15T06:38:37;96069.38;;;14.33;49.27
75013;BME280;63567;49.956;20.130;2023-04-15T06:41:03;96066.22;;;14.19;51.43
75013;BME280;63567;49.956;20.130;2023-04-15T06:43:28;96069.38;;;14.33;50.67
75013;BME280;63567;49.956;20.130;2023-04-15T06:45:54;96074.22;;;14.36;49.88
75013;BME280;63567;49.956;20.130;2023-04-15T06:48:20;96074.09;;;14.43;50.76
75013;BME280;63567;49.956;20.130;2023-04-15T06:50:46;96073.25;;;14.13;51.06
75013;BME280;63567;49.956;20.130;2023-04-15T06:53:11;96086.41;;;14.08;50.22
75013;BME280;63567;49.956;20.130;2023-04-15T06:55:36;96086.59;;;14.18;50.06
75013;BME280;63567;49.956;20.130;2023-04-15T06:58:02;96082.69;;;14.21;51.04
75013;BME280;63567;49.956;20.130;2023-04-15T07:00:27;96089.56;;;14.22;51.81
75013;BME280;63567;49.956;20.130;2023-04-15T07:02:53;96087.72;;;14.34;51.09
75013;BME280;63567;49.956;20.130;2023-04-15T07:05:19;96085.75;;;14.30;50.34
75013;BME280;63567;49.956;20.130;2023-04-15T07:07:44;96083.91;;;14.30;50.25
75013;BME280;63567;49.956;20.130;2023-04-15T07:10:10;96090.69;;;13.86;50.46
75013;BME280;63567;49.956;20.130;2023-04-15T07:12:36;96096.75;;;14.10;51.62
75013;BME280;63567;49.956;20.130;2023-04-15T07:15:02;96100.31;;;14.15;52.34
75013;BME280;63567;49.956;20.130;2023-04-15T07:17:27;96103.56;;;14.06;49.95
75013;BME280;63567;49.956;20.130;2023-04-15T07:19:53;96094.03;;;13.93;51.37
75013;BME280;63567;49.956;20.130;2023-04-15T07:22:18;96102.47;;;14.30;50.09
75013;BME280;63567;49.956;20.130;2023-04-15T07:24:43;96108.16;;;14.63;49.45
75013;BME280;63567;49.956;20.130;2023-04-15T07:27:09;96106.25;;;14.75;49.67
75013;BME280;63567;49.956;20.130;2023-04-15T07:29:34;96113.44;;;14.91;50.35
75013;BME280;63567;49.956;20.130;2023-04-15T07:32:00;96108.75;;;15.27;49.71
75013;BME280;63567;49.956;20.130;2023-04-15T07:34:25;96118.06;;;15.64;49.06
75013;BME280;63567;49.956;20.130;2023-04-15T07:36:51;96111.88;;;15.58;48.13
75013;BME280;63567;49.956;20.130;2023-04-15T07:39:17;96113.84;;;15.68;48.02
75013;BME280;63567;49.956;20.130;2023-04-15T07:41:42;96115.03;;;15.38;49.79
75013;BME280;63567;49.956;20.130;2023-04-15T07:44:08;96128.19;;;15.50;47.06
75013;BME280;63567;49.956;20.130;2023-04-15T07:46:33;96113.53;;;15.13;47.74
75013;BME280;63567;49.956;20.130;2023-04-15T07:48:59;96116.13;;;15.08;48.31
75013;BME280;63567;49.956;20.130;2023-04-15T07:51:24;96115.88;;;15.44;48.63
75013;BME280;63567;49.956;20.130;2023-04-15T07:53:50;96127.00;;;15.57;46.38
75013;BME280;63567;49.956;20.130;2023-04-15T07:56:15;96120.53;;;15.87;46.40
75013;BME280;63567;49.956;20.130;2023-04-15T07:58:41;96124.22;;;16.03;46.08
75013;BME280;63567;49.956;20.130;2023-04-15T08:01:07;96119.84;;;16.36;43.38
75013;BME280;63567;49.956;20.130;2023-04-15T08:03:32;96125.47;;;16.83;43.71
75013;BME280;63567;49.956;20.130;2023-04-15T08:05:58;96125.88;;;17.62;42.88
75013;BME280;63567;49.956;20.130;2023-04-15T08:08:23;96126.88;;;18.31;40.15
75013;BME280;63567;49.956;20.130;2023-04-15T08:10:49;96128.03;;;18.60;39.21
75013;BME280;63567;49.956;20.130;2023-04-15T08:13:15;96130.63;;;18.35;41.27
75013;BME280;63567;49.956;20.130;2023-04-15T08:15:41;96139.38;;;18.25;38.76
75013;BME280;63567;49.956;20.130;2023-04-15T08:18:06;96141.00;;;18.31;39.40
75013;BME280;63567;49.956;20.130;2023-04-15T08:20:32;96141.78;;;18.26;40.09
75013;BME280;63567;49.956;20.130;2023-04-15T08:22:58;96134.94;;;18.51;39.46
75013;BME280;63567;49.956;20.130;2023-04-15T08:25:23;96138.03;;;18.27;38.81
75013;BME280;63567;49.956;20.130;2023-04-15T08:27:48;96143.72;;;18.41;39.83
75013;BME280;63567;49.956;20.130;2023-04-15T08:30:14;96138.75;;;18.76;39.98
75013;BME280;63567;49.956;20.130;2023-04-15T08:32:41;96148.97;;;18.26;36.46
75013;BME280;63567;49.956;20.130;2023-04-15T08:35:07;96147.88;;;16.66;38.37
75013;BME280;63567;49.956;20.130;2023-04-15T08:37:33;96147.41;;;16.08;41.98
75013;BME280;63567;49.956;20.130;2023-04-15T08:39:58;96142.47;;;16.16;41.68
75013;BME280;63567;49.956;20.130;2023-04-15T08:42:29;96149.31;;;15.73;41.47
75013;BME280;63567;49.956;20.130;2023-04-15T08:44:58;96149.34;;;15.45;42.69
75013;BME280;63567;49.956;20.130;2023-04-15T08:47:25;96149.06;;;15.75;43.72
75013;BME280;63567;49.956;20.130;2023-04-15T08:49:54;96136.72;;;16.69;42.73
75013;BME280;63567;49.956;20.130;2023-04-15T08:52:19;96144.72;;;17.50;42.60
75013;BME280;63567;49.956;20.130;2023-04-15T08:54:46;96141.66;;;18.59;38.67
75013;BME280;63567;49.956;20.130;2023-04-15T08:57:12;96144.78;;;19.65;35.78
75013;BME280;63567;49.956;20.130;2023-04-15T08:59:40;96140.44;;;20.30;34.20
75013;BME280;63567;49.956;20.130;2023-04-15T09:02:06;96143.72;;;20.77;34.02
75013;BME280;63567;49.956;20.130;2023-04-15T09:04:32;96151.34;;;20.49;34.07
75013;BME280;63567;49.956;20.130;2023-04-15T09:06:57;96152.00;;;19.64;33.48
75013;BME280;63567;49.956;20.130;2023-04-15T09:09:23;96147.19;;;18.47;35.29
75013;BME280;63567;49.956;20.130;2023-04-15T09:11:48;96146.56;;;18.87;37.75
75013;BME280;63567;49.956;20.130;2023-04-15T09:14:15;96144.25;;;19.83;34.26
75013;BME280;63567;49.956;20.130;2023-04-15T09:17:02;96141.59;;;19.63;32.81
75013;BME280;63567;49.956;20.130;2023-04-15T09:19:28;96136.94;;;18.81;33.36
75013;BME280;63567;49.956;20.130;2023-04-15T09:21:55;96135.16;;;18.39;33.73
75013;BME280;63567;49.956;20.130;2023-04-15T09:24:21;96138.72;;;18.02;36.08
75013;BME280;63567;49.956;20.130;2023-04-15T09:26:47;96137.00;;;19.02;34.77
75013;BME280;63567;49.956;20.130;2023-04-15T09:29:16;96151.97;;;18.35;34.47
75013;BME280;63567;49.956;20.130;2023-04-15T09:31:42;96137.03;;;19.53;35.57
75013;BME280;63567;49.956;20.130;2023-04-15T09:34:08;96143.97;;;19.59;34.50
75013;BME280;63567;49.956;20.130;2023-04-15T09:36:52;96139.19;;;19.31;35.21
75013;BME280;63567;49.956;20.130;2023-04-15T09:39:18;96139.69;;;19.27;35.12
75013;BME280;63567;49.956;20.130;2023-04-15T09:41:43;96142.66;;;19.46;34.06
75013;BME280;63567;49.956;20.130;2023-04-15T09:44:27;96142.38;;;19.43;34.39
75013;BME280;63567;49.956;20.130;2023-04-15T09:46:53;96142.09;;;19.19;33.35
75013;BME280;63567;49.956;20.130;2023-04-15T09:49:18;96146.09;;;18.43;33.08
75013;BME280;63567;49.956;20.130;2023-04-15T09:51:44;96158.09;;;18.35;34.45
75013;BME280;63567;49.956;20.130;2023-04-15T09:54:10;96150.25;;;18.18;35.50
75013;BME280;63567;49.956;20.130;2023-04-15T09:56:36;96147.28;;;18.10;36.43
75013;BME280;63567;49.956;20.130;2023-04-15T09:59:09;96145.75;;;18.82;36.22
75013;BME280;63567;49.956;20.130;2023-04-15T10:01:35;96137.84;;;19.43;35.62
75013;BME280;63567;49.956;20.130;2023-04-15T10:04:03;96149.84;;;20.02;34.88
75013;BME280;63567;49.956;20.130;2023-04-15T10:06:29;96145.78;;;20.25;32.04
75013;BME280;63567;49.956;20.130;2023-04-15T10:08:57;96141.53;;;20.89;31.06
75013;BME280;63567;49.956;20.130;2023-04-15T10:11:23;96145.97;;;20.60;30.29
75013;BME280;63567;49.956;20.130;2023-04-15T10:13:49;96137.84;;;20.80;31.17
75013;BME280;63567;49.956;20.130;2023-04-15T10:16:18;96144.53;;;21.96;27.82
75013;BME280;63567;49.956;20.130;2023-04-15T10:18:46;96146.47;;;21.17;28.46
75013;BME280;63567;49.956;20.130;2023-04-15T10:21:12;96150.31;;;20.35;29.43
75013;BME280;63567;49.956;20.130;2023-04-15T10:23:40;96143.06;;;20.36;30.43
75013;BME280;63567;49.956;20.130;2023-04-15T10:26:07;96140.28;;;21.21;32.93
75013;BME280;63567;49.956;20.130;2023-04-15T10:28:33;96141.66;;;21.13;28.88
75013;BME280;63567;49.956;20.130;2023-04-15T10:30:59;96145.06;;;21.69;33.60
75013;BME280;63567;49.956;20.130;2023-04-15T10:33:26;96138.78;;;23.56;30.87
75013;BME280;63567;49.956;20.130;2023-04-15T10:35:55;96142.25;;;22.08;28.46
75013;BME280;63567;49.956;20.130;2023-04-15T10:41:12;96142.91;;;22.48;31.75
75013;BME280;63567;49.956;20.130;2023-04-15T10:43:38;96139.72;;;22.22;28.62
75013;BME280;63567;49.956;20.130;2023-04-15T10:46:07;96128.53;;;22.82;28.72
75013;BME280;63567;49.956;20.130;2023-04-15T10:48:32;96133.81;;;23.96;28.81
75013;BME280;63567;49.956;20.130;2023-04-15T10:51:00;96129.16;;;23.17;26.84
75013;BME280;63567;49.956;20.130;2023-04-15T10:53:29;96133.56;;;21.24;29.94
75013;BME280;63567;49.956;20.130;2023-04-15T10:55:56;96132.09;;;21.76;31.47
75013;BME280;63567;49.956;20.130;2023-04-15T10:58:23;96136.81;;;21.89;31.48
75013;BME280;63567;49.956;20.130;2023-04-15T11:00:50;96131.22;;;21.12;29.98
75013;BME280;63567;49.956;20.130;2023-04-15T11:03:38;96129.78;;;19.07;32.66
75013;BME280;63567;49.956;20.130;2023-04-15T11:06:05;96128.72;;;19.19;34.70
75013;BME280;63567;49.956;20.130;2023-04-15T11:08:56;96135.16;;;19.33;33.35
75013;BME280;63567;49.956;20.130;2023-04-15T11:14:26;96139.00;;;18.64;34.24
75013;BME280;63567;49.956;20.130;2023-04-15T11:16:52;96148.59;;;18.07;36.40
75013;BME280;63567;49.956;20.130;2023-04-15T11:19:17;96144.22;;;18.38;34.69
75013;BME280;63567;49.956;20.130;2023-04-15T11:21:43;96141.22;;;18.82;36.25
75013;BME280;63567;49.956;20.130;2023-04-15T11:24:08;96138.09;;;19.11;35.79
75013;BME280;63567;49.956;20.130;2023-04-15T11:26:33;96141.81;;;19.20;35.53
75013;BME280;63567;49.956;20.130;2023-04-15T11:28:59;96150.63;;;19.11;37.05
75013;BME280;63567;49.956;20.130;2023-04-15T11:31:26;96149.00;;;18.94;35.18
75013;BME280;63567;49.956;20.130;2023-04-15T11:33:58;96144.94;;;18.86;35.71
75013;BME280;63567;49.956;20.130;2023-04-15T11:36:29;96157.13;;;18.57;34.84
75013;BME280;63567;49.956;20.130;2023-04-15T11:38:57;96156.50;;;17.92;35.69
75013;BME280;63567;49.956;20.130;2023-04-15T11:41:23;96161.09;;;18.01;36.86
75013;BME280;63567;49.956;20.130;2023-04-15T11:43:49;96159.72;;;17.61;36.37
75013;BME280;63567;49.956;20.130;2023-04-15T11:46:15;96163.03;;;17.41;37.27
75013;BME280;63567;49.956;20.130;2023-04-15T11:48:45;96157.44;;;16.67;37.87
75013;BME280;63567;49.956;20.130;2023-04-15T11:51:11;96160.16;;;16.50;40.28
75013;BME280;63567;49.956;20.130;2023-04-15T11:53:47;96149.75;;;16.26;38.90
75013;BME280;63567;49.956;20.130;2023-04-15T11:58:43;96161.28;;;15.76;38.71
75013;BME280;63567;49.956;20.130;2023-04-15T12:01:10;96152.81;;;15.62;40.70
75013;BME280;63567;49.956;20.130;2023-04-15T12:11:15;96161.56;;;15.46;41.57
75013;BME280;63567;49.956;20.130;2023-04-15T12:13:48;96161.59;;;15.63;42.21
75013;BME280;63567;49.956;20.130;2023-04-15T12:16:18;96163.66;;;15.44;43.17
75013;BME280;63567;49.956;20.130;2023-04-15T12:18:49;96164.56;;;15.49;42.35
75013;BME280;63567;49.956;20.130;2023-04-15T12:21:18;96161.28;;;15.76;44.19
75013;BME280;63567;49.956;20.130;2023-04-15T12:23:48;96170.44;;;15.68;44.44
75013;BME280;63567;49.956;20.130;2023-04-15T12:26:17;96159.59;;;15.87;43.29
75013;BME280;63567;49.956;20.130;2023-04-15T12:28:43;96171.22;;;16.02;42.17
75013;BME280;63567;49.956;20.130;2023-04-15T12:31:09;96173.75;;;16.09;42.67
75013;BME280;63567;49.956;20.130;2023-04-15T12:33:35;96168.84;;;16.01;42.82
75013;BME280;63567;49.956;20.130;2023-04-15T12:36:00;96172.47;;;15.95;43.47
75013;BME280;63567;49.956;20.130;2023-04-15T12:38:26;96168.75;;;15.96;43.77
75013;BME280;63567;49.956;20.130;2023-04-15T12:40:51;96170.91;;;16.16;43.73
75013;BME280;63567;49.956;20.130;2023-04-15T12:43:17;96167.00;;;16.23;42.85
75013;BME280;63567;49.956;20.130;2023-04-15T12:45:42;96168.41;;;16.48;42.99
75013;BME280;63567;49.956;20.130;2023-04-15T12:48:07;96163.13;;;16.53;42.59
75013;BME280;63567;49.956;20.130;2023-04-15T12:50:34;96166.97;;;16.40;43.14
75013;BME280;63567;49.956;20.130;2023-04-15T12:52:59;96169.84;;;16.39;42.47
75013;BME280;63567;49.956;20.130;2023-04-15T12:55:25;96167.03;;;16.46;42.01
75013;BME280;63567;49.956;20.130;2023-04-15T12:57:50;96175.50;;;16.87;43.22
75013;BME280;63567;49.956;20.130;2023-04-15T13:00:16;96169.84;;;17.32;41.82
75013;BME280;63567;49.956;20.130;2023-04-15T13:02:43;96165.41;;;17.43;43.78
75013;BME280;63567;49.956;20.130;2023-04-15T13:05:08;96160.59;;;18.57;39.26
75013;BME280;63567;49.956;20.130;2023-04-15T13:07:34;96160.84;;;19.65;37.16